Terminal Aerodrome Forecast
Issued by NWS

Home | Current Version | Previous Version | Graphics & Text | Print | Product List | Glossary On
Versions: 1 2 3 4 5 6 7 8 9 10 11 12 13 14 15 16 17 18 19 20 21 22
000
FTUS43 KLOT 291748
TAFDPA
TAF
KDPA 291748Z 2918/3018 03016G25KT P6SM -SHRA BKN020 BKN030
      TEMPO 2918/2922 5SM SHRA OVC017
     FM300030 02011G17KT P6SM VCSH BKN015 OVC025
     FM300500 03011G17KT P6SM VCSH OVC010 PROB30 3008/3014 -SHRA
      OVC008
     FM301400 05014G22KT P6SM VCSH OVC008=

USA.gov is the U.S. government's official web portal to all federal, state and local government web resources and services.